sensor_id;sensor_type;location;lat;lon;timestamp;temperature;humidity
16417;DHT22;8317;52.186;5.688;2023-05-29T00:00:13;11.60;99.90
16417;DHT22;8317;52.186;5.688;2023-05-29T00:02:41;11.60;99.90
16417;DHT22;8317;52.186;5.688;2023-05-29T00:05:09;11.60;99.90
16417;DHT22;8317;52.186;5.688;2023-05-29T00:07:38;11.50;99.90
16417;DHT22;8317;52.186;5.688;2023-05-29T00:10:06;11.40;99.90
16417;DHT22;8317;52.186;5.688;2023-05-29T00:12:34;11.40;99.90
16417;DHT22;8317;52.186;5.688;2023-05-29T00:15:01;11.40;99.90
16417;DHT22;8317;52.186;5.688;2023-05-29T00:17:30;11.40;99.90
16417;DHT22;8317;52.186;5.688;2023-05-29T00:19:57;11.40;99.90
16417;DHT22;8317;52.186;5.688;2023-05-29T00:22:25;11.30;99.90
16417;DHT22;8317;52.186;5.688;2023-05-29T00:24:54;11.30;99.90
16417;DHT22;8317;52.186;5.688;2023-05-29T00:27:20;11.30;99.90
16417;DHT22;8317;52.186;5.688;2023-05-29T00:29:47;11.30;99.90
16417;DHT22;8317;52.186;5.688;2023-05-29T00:32:14;11.30;99.90
16417;DHT22;8317;52.186;5.688;2023-05-29T00:34:41;11.30;99.90
16417;DHT22;8317;52.186;5.688;2023-05-29T00:37:08;11.30;99.90
16417;DHT22;8317;52.186;5.688;2023-05-29T00:39:35;11.20;99.90
16417;DHT22;8317;52.186;5.688;2023-05-29T00:42:03;11.20;99.90
16417;DHT22;8317;52.186;5.688;2023-05-29T00:44:30;11.20;99.90
16417;DHT22;8317;52.186;5.688;2023-05-29T00:46:57;11.10;99.90
16417;DHT22;8317;52.186;5.688;2023-05-29T00:49:24;11.10;99.90
16417;DHT22;8317;52.186;5.688;2023-05-29T00:51:53;11.20;99.90
16417;DHT22;8317;52.186;5.688;2023-05-29T00:54:22;11.10;99.90
16417;DHT22;8317;52.186;5.688;2023-05-29T00:56:50;11.10;99.90
16417;DHT22;8317;52.186;5.688;2023-05-29T00:59:19;11.10;99.90
16417;DHT22;8317;52.186;5.688;2023-05-29T01:01:47;11.10;99.90
16417;DHT22;8317;52.186;5.688;2023-05-29T01:04:16;11.10;99.90
16417;DHT22;8317;52.186;5.688;2023-05-29T01:06:43;10.90;99.90
16417;DHT22;8317;52.186;5.688;2023-05-29T01:09:11;10.90;99.90
16417;DHT22;8317;52.186;5.688;2023-05-29T01:11:57;10.90;99.90
16417;DHT22;8317;52.186;5.688;2023-05-29T01:14:32;10.90;99.90
16417;DHT22;8317;52.186;5.688;2023-05-29T01:17:06;10.90;99.90
16417;DHT22;8317;52.186;5.688;2023-05-29T01:19:52;10.90;99.90
16417;DHT22;8317;52.186;5.688;2023-05-29T01:22:34;10.90;99.90
16417;DHT22;8317;52.186;5.688;2023-05-29T01:25:11;10.80;99.90
16417;DHT22;8317;52.186;5.688;2023-05-29T01:27:41;10.80;99.90
16417;DHT22;8317;52.186;5.688;2023-05-29T01:30:11;10.80;99.90
16417;DHT22;8317;52.186;5.688;2023-05-29T01:32:40;10.80;99.90
16417;DHT22;8317;52.186;5.688;2023-05-29T01:35:08;10.80;99.90
16417;DHT22;8317;52.186;5.688;2023-05-29T01:37:35;10.70;99.90
16417;DHT22;8317;52.186;5.688;2023-05-29T01:40:02;10.70;99.90
16417;DHT22;8317;52.186;5.688;2023-05-29T01:42:30;10.60;99.90
16417;DHT22;8317;52.186;5.688;2023-05-29T01:44:59;10.60;99.90
16417;DHT22;8317;52.186;5.688;2023-05-29T01:47:26;10.50;99.90
16417;DHT22;8317;52.186;5.688;2023-05-29T01:49:54;10.50;99.90
16417;DHT22;8317;52.186;5.688;2023-05-29T01:52:21;10.50;99.90
16417;DHT22;8317;52.186;5.688;2023-05-29T01:54:48;10.50;99.90
16417;DHT22;8317;52.186;5.688;2023-05-29T01:57:15;10.40;99.90
16417;DHT22;8317;52.186;5.688;2023-05-29T01:59:43;10.40;99.90
16417;DHT22;8317;52.186;5.688;2023-05-29T02:02:11;10.40;99.90
16417;DHT22;8317;52.186;5.688;2023-05-29T02:04:38;10.40;99.90
16417;DHT22;8317;52.186;5.688;2023-05-29T02:07:05;10.40;99.90
16417;DHT22;8317;52.186;5.688;2023-05-29T02:09:34;10.40;99.90
16417;DHT22;8317;52.186;5.688;2023-05-29T02:12:01;10.40;99.90
16417;DHT22;8317;52.186;5.688;2023-05-29T02:14:28;10.30;99.90
16417;DHT22;8317;52.186;5.688;2023-05-29T02:16:57;10.30;99.90
16417;DHT22;8317;52.186;5.688;2023-05-29T02:19:25;10.20;99.90
16417;DHT22;8317;52.186;5.688;2023-05-29T02:21:52;10.20;99.90
16417;DHT22;8317;52.186;5.688;2023-05-29T02:24:20;10.20;99.90
16417;DHT22;8317;52.186;5.688;2023-05-29T02:26:48;10.20;99.90
16417;DHT22;8317;52.186;5.688;2023-05-29T02:29:15;10.20;99.90
16417;DHT22;8317;52.186;5.688;2023-05-29T02:31:42;10.20;99.90
16417;DHT22;8317;52.186;5.688;2023-05-29T02:34:09;10.20;99.90
16417;DHT22;8317;52.186;5.688;2023-05-29T02:36:37;10.20;99.90
16417;DHT22;8317;52.186;5.688;2023-05-29T02:39:05;10.10;99.90
16417;DHT22;8317;52.186;5.688;2023-05-29T02:41:32;10.10;99.90
16417;DHT22;8317;52.186;5.688;2023-05-29T02:43:59;10.10;99.90
16417;DHT22;8317;52.186;5.688;2023-05-29T02:46:26;10.00;99.90
16417;DHT22;8317;52.186;5.688;2023-05-29T02:48:53;10.10;99.90
16417;DHT22;8317;52.186;5.688;2023-05-29T02:51:20;10.00;99.90
16417;DHT22;8317;52.186;5.688;2023-05-29T02:53:48;9.90;99.90
16417;DHT22;8317;52.186;5.688;2023-05-29T02:56:15;9.90;99.90
16417;DHT22;8317;52.186;5.688;2023-05-29T02:58:42;9.90;99.90
16417;DHT22;8317;52.186;5.688;2023-05-29T03:01:09;9.80;99.90
16417;DHT22;8317;52.186;5.688;2023-05-29T03:03:36;9.80;99.90
16417;DHT22;8317;52.186;5.688;2023-05-29T03:06:03;9.90;99.90
16417;DHT22;8317;52.186;5.688;2023-05-29T03:08:31;9.80;99.90
16417;DHT22;8317;52.186;5.688;2023-05-29T03:11:00;9.70;99.90
16417;DHT22;8317;52.186;5.688;2023-05-29T03:13:28;9.80;99.90
16417;DHT22;8317;52.186;5.688;2023-05-29T03:15:55;9.80;99.90
16417;DHT22;8317;52.186;5.688;2023-05-29T03:18:22;9.70;99.90
16417;DHT22;8317;52.186;5.688;2023-05-29T03:20:49;9.70;99.90
16417;DHT22;8317;52.186;5.688;2023-05-29T03:23:16;9.70;99.90
16417;DHT22;8317;52.186;5.688;2023-05-29T03:25:43;9.70;99.90
16417;DHT22;8317;52.186;5.688;2023-05-29T03:28:11;9.70;99.90
16417;DHT22;8317;52.186;5.688;2023-05-29T03:30:38;9.60;99.90
16417;DHT22;8317;52.186;5.688;2023-05-29T03:33:05;9.60;99.90
16417;DHT22;8317;52.186;5.688;2023-05-29T03:35:32;9.60;99.90
16417;DHT22;8317;52.186;5.688;2023-05-29T03:37:59;9.60;99.90
16417;DHT22;8317;52.186;5.688;2023-05-29T03:40:26;9.60;99.90
16417;DHT22;8317;52.186;5.688;2023-05-29T03:42:53;9.50;99.90
16417;DHT22;8317;52.186;5.688;2023-05-29T03:45:22;9.50;99.90
16417;DHT22;8317;52.186;5.688;2023-05-29T03:47:48;9.50;99.90
16417;DHT22;8317;52.186;5.688;2023-05-29T03:50:16;9.60;99.90
16417;DHT22;8317;52.186;5.688;2023-05-29T03:52:42;9.50;99.90
16417;DHT22;8317;52.186;5.688;2023-05-29T03:55:10;9.50;99.90
16417;DHT22;8317;52.186;5.688;2023-05-29T03:57:40;9.60;99.90
16417;DHT22;8317;52.186;5.688;2023-05-29T04:00:08;9.50;99.90
16417;DHT22;8317;52.186;5.688;2023-05-29T04:02:38;9.60;99.90
16417;DHT22;8317;52.186;5.688;2023-05-29T04:05:06;9.60;99.90
16417;DHT22;8317;52.186;5.688;2023-05-29T04:07:35;9.60;99.90
16417;DHT22;8317;52.186;5.688;2023-05-29T04:10:03;9.60;99.90
16417;DHT22;8317;52.186;5.688;2023-05-29T04:12:30;9.60;99.90
16417;DHT22;8317;52.186;5.688;2023-05-29T04:14:57;9.60;99.90
16417;DHT22;8317;52.186;5.688;2023-05-29T04:17:23;9.60;99.90
16417;DHT22;8317;52.186;5.688;2023-05-29T04:19:52;9.60;99.90
16417;DHT22;8317;52.186;5.688;2023-05-29T04:22:19;9.60;99.90
16417;DHT22;8317;52.186;5.688;2023-05-29T04:24:46;9.60;99.90
16417;DHT22;8317;52.186;5.688;2023-05-29T04:27:13;9.60;99.90
16417;DHT22;8317;52.186;5.688;2023-05-29T04:29:40;9.60;99.90
16417;DHT22;8317;52.186;5.688;2023-05-29T04:32:08;9.60;99.90
16417;DHT22;8317;52.186;5.688;2023-05-29T04:34:36;9.70;99.90
16417;DHT22;8317;52.186;5.688;2023-05-29T04:37:05;9.70;99.90
16417;DHT22;8317;52.186;5.688;2023-05-29T04:39:32;9.70;99.90
16417;DHT22;8317;52.186;5.688;2023-05-29T04:41:59;9.70;99.90
16417;DHT22;8317;52.186;5.688;2023-05-29T04:44:26;9.70;99.90
16417;DHT22;8317;52.186;5.688;2023-05-29T04:46:55;9.70;99.90
16417;DHT22;8317;52.186;5.688;2023-05-29T04:49:23;9.70;99.90
16417;DHT22;8317;52.186;5.688;2023-05-29T04:51:50;9.70;99.90
16417;DHT22;8317;52.186;5.688;2023-05-29T04:54:21;9.70;99.90
16417;DHT22;8317;52.186;5.688;2023-05-29T04:56:48;9.70;99.90
16417;DHT22;8317;52.186;5.688;2023-05-29T04:59:15;9.70;99.90
16417;DHT22;8317;52.186;5.688;2023-05-29T05:01:42;9.90;99.90
16417;DHT22;8317;52.186;5.688;2023-05-29T05:04:09;9.80;99.90
16417;DHT22;8317;52.186;5.688;2023-05-29T05:06:36;9.90;99.90
16417;DHT22;8317;52.186;5.688;2023-05-29T05:09:04;9.80;99.90
16417;DHT22;8317;52.186;5.688;2023-05-29T05:11:33;9.80;99.90
16417;DHT22;8317;52.186;5.688;2023-05-29T05:13:59;9.90;99.90
16417;DHT22;8317;52.186;5.688;2023-05-29T05:16:26;10.00;99.90
16417;DHT22;8317;52.186;5.688;2023-05-29T05:18:53;10.00;99.90
16417;DHT22;8317;52.186;5.688;2023-05-29T05:21:20;10.10;99.90
16417;DHT22;8317;52.186;5.688;2023-05-29T05:23:47;10.10;99.90
16417;DHT22;8317;52.186;5.688;2023-05-29T05:26:14;10.20;99.90
16417;DHT22;8317;52.186;5.688;2023-05-29T05:28:42;10.20;99.90
16417;DHT22;8317;52.186;5.688;2023-05-29T05:31:09;10.20;99.90
16417;DHT22;8317;52.186;5.688;2023-05-29T05:33:36;10.30;99.90
16417;DHT22;8317;52.186;5.688;2023-05-29T05:36:03;10.30;99.90
16417;DHT22;8317;52.186;5.688;2023-05-29T05:38:30;10.40;99.90
16417;DHT22;8317;52.186;5.688;2023-05-29T05:40:57;10.50;99.90
16417;DHT22;8317;52.186;5.688;2023-05-29T05:43:24;10.70;99.90
16417;DHT22;8317;52.186;5.688;2023-05-29T05:45:54;10.80;99.90
16417;DHT22;8317;52.186;5.688;2023-05-29T05:48:21;10.90;99.90
16417;DHT22;8317;52.186;5.688;2023-05-29T05:50:47;11.00;99.90
16417;DHT22;8317;52.186;5.688;2023-05-29T05:53:15;11.20;99.90
16417;DHT22;8317;52.186;5.688;2023-05-29T05:55:43;11.50;99.90
16417;DHT22;8317;52.186;5.688;2023-05-29T05:58:10;11.70;99.90
16417;DHT22;8317;52.186;5.688;2023-05-29T06:00:37;11.70;99.90
16417;DHT22;8317;52.186;5.688;2023-05-29T06:03:05;12.00;99.90
16417;DHT22;8317;52.186;5.688;2023-05-29T06:05:32;12.10;57.30
16417;DHT22;8317;52.186;5.688;2023-05-29T06:07:59;12.40;76.90
16417;DHT22;8317;52.186;5.688;2023-05-29T06:10:26;12.50;52.90
16417;DHT22;8317;52.186;5.688;2023-05-29T06:12:53;12.60;43.40
16417;DHT22;8317;52.186;5.688;2023-05-29T06:15:20;12.60;1.00
16417;DHT22;8317;52.186;5.688;2023-05-29T06:17:47;12.70;18.20
16417;DHT22;8317;52.186;5.688;2023-05-29T06:20:18;12.90;1.00
16417;DHT22;8317;52.186;5.688;2023-05-29T06:22:45;12.80;1.00
16417;DHT22;8317;52.186;5.688;2023-05-29T06:25:15;12.70;1.00
16417;DHT22;8317;52.186;5.688;2023-05-29T06:27:43;12.90;1.00
16417;DHT22;8317;52.186;5.688;2023-05-29T06:30:11;12.90;1.00
16417;DHT22;8317;52.186;5.688;2023-05-29T06:32:38;13.00;1.00
16417;DHT22;8317;52.186;5.688;2023-05-29T06:35:06;13.10;1.00
16417;DHT22;8317;52.186;5.688;2023-05-29T06:37:34;13.30;1.00
16417;DHT22;8317;52.186;5.688;2023-05-29T06:40:01;13.50;1.00
16417;DHT22;8317;52.186;5.688;2023-05-29T06:42:29;13.40;1.00
16417;DHT22;8317;52.186;5.688;2023-05-29T06:44:56;13.60;1.00
16417;DHT22;8317;52.186;5.688;2023-05-29T06:47:23;13.70;1.00
16417;DHT22;8317;52.186;5.688;2023-05-29T06:49:50;13.90;1.00
16417;DHT22;8317;52.186;5.688;2023-05-29T06:52:17;14.10;1.00
16417;DHT22;8317;52.186;5.688;2023-05-29T06:54:45;14.20;1.00
16417;DHT22;8317;52.186;5.688;2023-05-29T06:57:12;14.20;1.00
16417;DHT22;8317;52.186;5.688;2023-05-29T06:59:39;14.30;1.00
16417;DHT22;8317;52.186;5.688;2023-05-29T07:02:06;14.50;1.00
16417;DHT22;8317;52.186;5.688;2023-05-29T07:04:33;14.80;1.00
16417;DHT22;8317;52.186;5.688;2023-05-29T07:07:00;15.00;1.00
16417;DHT22;8317;52.186;5.688;2023-05-29T07:09:27;15.00;1.00
16417;DHT22;8317;52.186;5.688;2023-05-29T07:11:55;15.00;1.00
16417;DHT22;8317;52.186;5.688;2023-05-29T07:14:22;15.20;1.00
16417;DHT22;8317;52.186;5.688;2023-05-29T07:16:49;15.10;1.00
16417;DHT22;8317;52.186;5.688;2023-05-29T07:19:16;15.40;1.00
16417;DHT22;8317;52.186;5.688;2023-05-29T07:21:42;15.60;1.00
16417;DHT22;8317;52.186;5.688;2023-05-29T07:24:09;15.60;1.00
16417;DHT22;8317;52.186;5.688;2023-05-29T07:26:36;15.50;1.00
16417;DHT22;8317;52.186;5.688;2023-05-29T07:29:04;15.40;1.00
16417;DHT22;8317;52.186;5.688;2023-05-29T07:31:31;15.50;1.00
16417;DHT22;8317;52.186;5.688;2023-05-29T07:33:58;15.40;1.00
16417;DHT22;8317;52.186;5.688;2023-05-29T07:36:30;15.60;1.00
16417;DHT22;8317;52.186;5.688;2023-05-29T07:38:57;15.80;1.00
16417;DHT22;8317;52.186;5.688;2023-05-29T07:41:24;16.20;1.00
16417;DHT22;8317;52.186;5.688;2023-05-29T07:43:52;16.40;1.00
16417;DHT22;8317;52.186;5.688;2023-05-29T07:46:20;16.50;1.00
16417;DHT22;8317;52.186;5.688;2023-05-29T07:48:47;16.50;1.00
16417;DHT22;8317;52.186;5.688;2023-05-29T07:51:14;16.30;1.00
16417;DHT22;8317;52.186;5.688;2023-05-29T07:53:44;15.90;1.00
16417;DHT22;8317;52.186;5.688;2023-05-29T07:56:10;15.70;1.00
16417;DHT22;8317;52.186;5.688;2023-05-29T07:58:37;15.80;1.00
16417;DHT22;8317;52.186;5.688;2023-05-29T08:01:05;16.30;1.00
16417;DHT22;8317;52.186;5.688;2023-05-29T08:03:34;16.20;1.00
16417;DHT22;8317;52.186;5.688;2023-05-29T08:06:01;16.10;1.00
16417;DHT22;8317;52.186;5.688;2023-05-29T08:08:28;16.50;1.00
16417;DHT22;8317;52.186;5.688;2023-05-29T08:10:55;16.50;1.00
16417;DHT22;8317;52.186;5.688;2023-05-29T08:13:22;16.40;1.00
16417;DHT22;8317;52.186;5.688;2023-05-29T08:15:49;16.20;1.00
16417;DHT22;8317;52.186;5.688;2023-05-29T08:18:16;16.20;1.00
16417;DHT22;8317;52.186;5.688;2023-05-29T08:20:44;16.60;1.00
16417;DHT22;8317;52.186;5.688;2023-05-29T08:23:11;17.00;1.00
16417;DHT22;8317;52.186;5.688;2023-05-29T08:25:38;16.90;1.00
16417;DHT22;8317;52.186;5.688;2023-05-29T08:28:05;17.20;1.00
16417;DHT22;8317;52.186;5.688;2023-05-29T08:30:32;17.20;1.00
16417;DHT22;8317;52.186;5.688;2023-05-29T08:32:58;17.10;1.00
16417;DHT22;8317;52.186;5.688;2023-05-29T08:35:25;16.80;1.00
16417;DHT22;8317;52.186;5.688;2023-05-29T08:37:54;16.60;1.00
16417;DHT22;8317;52.186;5.688;2023-05-29T08:40:20;16.90;1.00
16417;DHT22;8317;52.186;5.688;2023-05-29T08:42:52;17.00;1.00
16417;DHT22;8317;52.186;5.688;2023-05-29T08:45:22;17.10;1.00
16417;DHT22;8317;52.186;5.688;2023-05-29T08:47:52;17.40;1.00
16417;DHT22;8317;52.186;5.688;2023-05-29T08:50:21;17.70;1.00
16417;DHT22;8317;52.186;5.688;2023-05-29T08:52:49;17.90;1.00
16417;DHT22;8317;52.186;5.688;2023-05-29T08:55:18;18.20;1.00
16417;DHT22;8317;52.186;5.688;2023-05-29T08:57:45;18.30;1.00
16417;DHT22;8317;52.186;5.688;2023-05-29T09:00:12;18.30;1.00
16417;DHT22;8317;52.186;5.688;2023-05-29T09:02:41;18.40;1.00
16417;DHT22;8317;52.186;5.688;2023-05-29T09:05:09;18.10;1.00
16417;DHT22;8317;52.186;5.688;2023-05-29T09:07:38;18.20;1.00
16417;DHT22;8317;52.186;5.688;2023-05-29T09:10:07;18.20;1.00
16417;DHT22;8317;52.186;5.688;2023-05-29T09:12:36;18.40;1.00
16417;DHT22;8317;52.186;5.688;2023-05-29T09:15:09;18.60;1.00
16417;DHT22;8317;52.186;5.688;2023-05-29T09:17:42;18.70;1.00
16417;DHT22;8317;52.186;5.688;2023-05-29T09:20:14;18.80;1.00
16417;DHT22;8317;52.186;5.688;2023-05-29T09:22:52;18.70;1.00
16417;DHT22;8317;52.186;5.688;2023-05-29T09:25:19;18.90;1.00
16417;DHT22;8317;52.186;5.688;2023-05-29T09:27:51;18.80;1.00
16417;DHT22;8317;52.186;5.688;2023-05-29T09:30:31;19.00;1.00
16417;DHT22;8317;52.186;5.688;2023-05-29T09:32:59;19.40;1.00
16417;DHT22;8317;52.186;5.688;2023-05-29T09:35:32;19.60;1.00
16417;DHT22;8317;52.186;5.688;2023-05-29T09:37:59;19.70;99.90
16417;DHT22;8317;52.186;5.688;2023-05-29T09:40:26;19.30;1.00
16417;DHT22;8317;52.186;5.688;2023-05-29T09:43:02;19.20;1.00
16417;DHT22;8317;52.186;5.688;2023-05-29T09:45:30;19.20;1.00
16417;DHT22;8317;52.186;5.688;2023-05-29T09:47:58;19.40;1.00
16417;DHT22;8317;52.186;5.688;2023-05-29T09:50:26;19.80;1.00
16417;DHT22;8317;52.186;5.688;2023-05-29T09:52:54;19.80;1.00
16417;DHT22;8317;52.186;5.688;2023-05-29T09:55:21;19.70;99.90
16417;DHT22;8317;52.186;5.688;2023-05-29T09:57:49;19.20;99.90
16417;DHT22;8317;52.186;5.688;2023-05-29T10:00:18;19.10;1.00
16417;DHT22;8317;52.186;5.688;2023-05-29T10:02:45;18.90;99.90
16417;DHT22;8317;52.186;5.688;2023-05-29T10:05:13;18.60;1.00
16417;DHT22;8317;52.186;5.688;2023-05-29T10:07:43;18.50;1.00
16417;DHT22;8317;52.186;5.688;2023-05-29T10:10:12;18.80;99.90
16417;DHT22;8317;52.186;5.688;2023-05-29T10:12:44;19.20;99.90
16417;DHT22;8317;52.186;5.688;2023-05-29T10:15:12;19.10;1.00
16417;DHT22;8317;52.186;5.688;2023-05-29T10:17:47;19.10;99.90
16417;DHT22;8317;52.186;5.688;2023-05-29T10:20:17;18.50;1.00
16417;DHT22;8317;52.186;5.688;2023-05-29T10:22:48;18.70;1.00
16417;DHT22;8317;52.186;5.688;2023-05-29T10:25:18;18.50;99.90
16417;DHT22;8317;52.186;5.688;2023-05-29T10:27:45;18.60;7.00
16417;DHT22;8317;52.186;5.688;2023-05-29T10:30:16;19.00;99.90
16417;DHT22;8317;52.186;5.688;2023-05-29T10:32:59;19.00;1.00
16417;DHT22;8317;52.186;5.688;2023-05-29T10:35:35;18.90;1.00
16417;DHT22;8317;52.186;5.688;2023-05-29T10:38:11;19.10;1.00
16417;DHT22;8317;52.186;5.688;2023-05-29T10:40:39;19.20;99.90
16417;DHT22;8317;52.186;5.688;2023-05-29T10:43:05;19.20;99.90
16417;DHT22;8317;52.186;5.688;2023-05-29T10:45:49;19.10;1.00
16417;DHT22;8317;52.186;5.688;2023-05-29T10:48:37;18.80;99.90
16417;DHT22;8317;52.186;5.688;2023-05-29T10:51:06;19.10;1.00
16417;DHT22;8317;52.186;5.688;2023-05-29T10:53:34;19.30;1.00
16417;DHT22;8317;52.186;5.688;2023-05-29T10:56:08;19.70;1.00
16417;DHT22;8317;52.186;5.688;2023-05-29T10:58:37;19.60;1.00
16417;DHT22;8317;52.186;5.688;2023-05-29T11:01:08;19.60;99.90
16417;DHT22;8317;52.186;5.688;2023-05-29T11:03:36;20.10;1.00
16417;DHT22;8317;52.186;5.688;2023-05-29T11:06:04;20.10;99.90
16417;DHT22;8317;52.186;5.688;2023-05-29T11:08:33;19.80;99.90
16417;DHT22;8317;52.186;5.688;2023-05-29T11:11:02;19.90;99.90
16417;DHT22;8317;52.186;5.688;2023-05-29T11:13:33;19.80;99.90
16417;DHT22;8317;52.186;5.688;2023-05-29T11:16:14;20.00;99.90
16417;DHT22;8317;52.186;5.688;2023-05-29T11:18:47;20.00;99.90
16417;DHT22;8317;52.186;5.688;2023-05-29T11:21:31;20.00;99.90
16417;DHT22;8317;52.186;5.688;2023-05-29T11:24:01;19.90;99.90
16417;DHT22;8317;52.186;5.688;2023-05-29T11:26:30;19.80;99.90
16417;DHT22;8317;52.186;5.688;2023-05-29T11:28:59;19.80;99.90
16417;DHT22;8317;52.186;5.688;2023-05-29T11:31:27;20.00;99.90
16417;DHT22;8317;52.186;5.688;2023-05-29T11:34:00;19.90;99.90
16417;DHT22;8317;52.186;5.688;2023-05-29T11:36:30;20.00;99.90
16417;DHT22;8317;52.186;5.688;2023-05-29T11:39:00;20.40;99.90
16417;DHT22;8317;52.186;5.688;2023-05-29T11:41:27;20.50;99.90
16417;DHT22;8317;52.186;5.688;2023-05-29T11:43:58;20.50;99.90
16417;DHT22;8317;52.186;5.688;2023-05-29T11:46:25;20.60;99.90
16417;DHT22;8317;52.186;5.688;2023-05-29T11:48:53;20.70;99.90
16417;DHT22;8317;52.186;5.688;2023-05-29T11:51:22;20.80;99.90
16417;DHT22;8317;52.186;5.688;2023-05-29T11:53:49;20.70;99.90
16417;DHT22;8317;52.186;5.688;2023-05-29T11:56:18;20.60;99.90
16417;DHT22;8317;52.186;5.688;2023-05-29T11:58:46;20.40;99.90
16417;DHT22;8317;52.186;5.688;2023-05-29T12:01:16;20.20;99.90
16417;DHT22;8317;52.186;5.688;2023-05-29T12:03:44;20.20;99.90
16417;DHT22;8317;52.186;5.688;2023-05-29T12:06:12;20.30;99.90
16417;DHT22;8317;52.186;5.688;2023-05-29T12:08:40;20.50;99.90
16417;DHT22;8317;52.186;5.688;2023-05-29T12:11:08;20.40;99.90
16417;DHT22;8317;52.186;5.688;2023-05-29T12:13:35;20.60;99.90
16417;DHT22;8317;52.186;5.688;2023-05-29T12:16:04;20.60;99.90
16417;DHT22;8317;52.186;5.688;2023-05-29T12:18:31;20.50;99.90
16417;DHT22;8317;52.186;5.688;2023-05-29T12:20:59;20.60;99.90
16417;DHT22;8317;52.186;5.688;2023-05-29T12:23:28;20.50;99.90
16417;DHT22;8317;52.186;5.688;2023-05-29T12:25:58;20.30;99.90
16417;DHT22;8317;52.186;5.688;2023-05-29T12:28:25;20.20;99.90
16417;DHT22;8317;52.186;5.688;2023-05-29T12:30:58;20.40;99.90
16417;DHT22;8317;52.186;5.688;2023-05-29T12:33:27;20.10;99.90
16417;DHT22;8317;52.186;5.688;2023-05-29T12:36:00;20.00;99.90
16417;DHT22;8317;52.186;5.688;2023-05-29T12:38:27;19.50;99.90
16417;DHT22;8317;52.186;5.688;2023-05-29T12:40:55;20.00;99.90
16417;DHT22;8317;52.186;5.688;2023-05-29T12:43:22;19.90;99.90
16417;DHT22;8317;52.186;5.688;2023-05-29T12:45:54;20.10;99.90
16417;DHT22;8317;52.186;5.688;2023-05-29T12:48:26;19.90;99.90
16417;DHT22;8317;52.186;5.688;2023-05-29T12:50:56;20.30;99.90
16417;DHT22;8317;52.186;5.688;2023-05-29T12:53:28;20.40;99.90
16417;DHT22;8317;52.186;5.688;2023-05-29T12:55:57;20.30;99.90
16417;DHT22;8317;52.186;5.688;2023-05-29T12:58:24;20.10;99.90
16417;DHT22;8317;52.186;5.688;2023-05-29T13:00:53;19.90;99.90
16417;DHT22;8317;52.186;5.688;2023-05-29T13:03:22;20.20;99.90
16417;DHT22;8317;52.186;5.688;2023-05-29T13:05:50;20.50;99.90
16417;DHT22;8317;52.186;5.688;2023-05-29T13:08:17;20.10;99.90
16417;DHT22;8317;52.186;5.688;2023-05-29T13:10:44;20.30;99.90
16417;DHT22;8317;52.186;5.688;2023-05-29T13:13:12;20.50;99.90
16417;DHT22;8317;52.186;5.688;2023-05-29T13:15:39;20.60;99.90
16417;DHT22;8317;52.186;5.688;2023-05-29T13:18:06;20.20;99.90
16417;DHT22;8317;52.186;5.688;2023-05-29T13:20:33;20.20;99.90
16417;DHT22;8317;52.186;5.688;2023-05-29T13:23:00;20.50;99.90
16417;DHT22;8317;52.186;5.688;2023-05-29T13:25:27;20.60;99.90
16417;DHT22;8317;52.186;5.688;2023-05-29T13:27:54;20.20;99.90
16417;DHT22;8317;52.186;5.688;2023-05-29T13:30:22;20.30;99.90
16417;DHT22;8317;52.186;5.688;2023-05-29T13:32:50;20.10;99.90
16417;DHT22;8317;52.186;5.688;2023-05-29T13:35:17;19.90;99.90
16417;DHT22;8317;52.186;5.688;2023-05-29T13:37:44;20.00;99.90
16417;DHT22;8317;52.186;5.688;2023-05-29T13:40:12;20.20;99.90
16417;DHT22;8317;52.186;5.688;2023-05-29T13:42:39;20.20;99.90
16417;DHT22;8317;52.186;5.688;2023-05-29T13:45:07;20.00;99.90
16417;DHT22;8317;52.186;5.688;2023-05-29T13:47:36;19.80;99.90
16417;DHT22;8317;52.186;5.688;2023-05-29T13:50:03;20.00;99.90
16417;DHT22;8317;52.186;5.688;2023-05-29T14:07:31;20.20;99.90
16417;DHT22;8317;52.186;5.688;2023-05-29T14:09:58;20.00;99.90
16417;DHT22;8317;52.186;5.688;2023-05-29T14:12:24;20.00;99.90
16417;DHT22;8317;52.186;5.688;2023-05-29T14:14:51;20.10;99.90
16417;DHT22;8317;52.186;5.688;2023-05-29T14:17:18;20.10;99.90
16417;DHT22;8317;52.186;5.688;2023-05-29T14:19:45;20.40;99.90
16417;DHT22;8317;52.186;5.688;2023-05-29T14:22:13;20.50;99.90
16417;DHT22;8317;52.186;5.688;2023-05-29T14:24:41;20.40;99.90
16417;DHT22;8317;52.186;5.688;2023-05-29T14:27:08;20.50;99.90
16417;DHT22;8317;52.186;5.688;2023-05-29T14:29:35;20.40;99.90
16417;DHT22;8317;52.186;5.688;2023-05-29T14:32:02;20.60;99.90
16417;DHT22;8317;52.186;5.688;2023-05-29T14:34:29;20.30;99.90
16417;DHT22;8317;52.186;5.688;2023-05-29T14:36:56;20.10;99.90
16417;DHT22;8317;52.186;5.688;2023-05-29T14:39:22;20.20;99.90
16417;DHT22;8317;52.186;5.688;2023-05-29T14:41:51;20.10;99.90
16417;DHT22;8317;52.186;5.688;2023-05-29T14:44:18;19.90;99.90
16417;DHT22;8317;52.186;5.688;2023-05-29T14:46:45;19.80;99.90
16417;DHT22;8317;52.186;5.688;2023-05-29T14:49:12;20.00;99.90
16417;DHT22;8317;52.186;5.688;2023-05-29T14:51:39;19.90;99.90
16417;DHT22;8317;52.186;5.688;2023-05-29T14:54:08;19.80;99.90
16417;DHT22;8317;52.186;5.688;2023-05-29T14:56:35;20.00;99.90
16417;DHT22;8317;52.186;5.688;2023-05-29T14:59:03;19.90;99.90
16417;DHT22;8317;52.186;5.688;2023-05-29T15:01:30;20.00;99.90
16417;DHT22;8317;52.186;5.688;2023-05-29T15:03:57;19.80;99.90
16417;DHT22;8317;52.186;5.688;2023-05-29T15:06:23;19.70;99.90
16417;DHT22;8317;52.186;5.688;2023-05-29T15:08:50;19.70;99.90
16417;DHT22;8317;52.186;5.688;2023-05-29T15:11:17;19.50;99.90
16417;DHT22;8317;52.186;5.688;2023-05-29T15:13:45;19.60;99.90
16417;DHT22;8317;52.186;5.688;2023-05-29T15:16:13;19.40;99.90
16417;DHT22;8317;52.186;5.688;2023-05-29T15:18:40;19.50;99.90
16417;DHT22;8317;52.186;5.688;2023-05-29T15:21:07;19.60;99.90
16417;DHT22;8317;52.186;5.688;2023-05-29T15:23:34;19.70;99.90
16417;DHT22;8317;52.186;5.688;2023-05-29T15:26:01;19.80;99.90
16417;DHT22;8317;52.186;5.688;2023-05-29T15:28:28;19.80;99.90
16417;DHT22;8317;52.186;5.688;2023-05-29T15:30:55;19.70;99.90
16417;DHT22;8317;52.186;5.688;2023-05-29T15:33:24;19.50;99.90
16417;DHT22;8317;52.186;5.688;2023-05-29T15:35:51;19.50;99.90
16417;DHT22;8317;52.186;5.688;2023-05-29T15:38:18;19.50;99.90
16417;DHT22;8317;52.186;5.688;2023-05-29T15:40:44;19.50;99.90
16417;DHT22;8317;52.186;5.688;2023-05-29T15:43:11;19.30;99.90
16417;DHT22;8317;52.186;5.688;2023-05-29T15:45:38;19.30;99.90
16417;DHT22;8317;52.186;5.688;2023-05-29T15:48:06;18.90;99.90
16417;DHT22;8317;52.186;5.688;2023-05-29T15:50:35;19.10;99.90
16417;DHT22;8317;52.186;5.688;2023-05-29T15:53:01;19.00;99.90
16417;DHT22;8317;52.186;5.688;2023-05-29T15:55:28;18.90;99.90
16417;DHT22;8317;52.186;5.688;2023-05-29T15:57:55;19.10;99.90
16417;DHT22;8317;52.186;5.688;2023-05-29T16:00:22;18.90;99.90
16417;DHT22;8317;52.186;5.688;2023-05-29T16:02:49;19.00;99.90
16417;DHT22;8317;52.186;5.688;2023-05-29T16:05:16;18.80;99.90
16417;DHT22;8317;52.186;5.688;2023-05-29T16:07:45;18.80;99.90
16417;DHT22;8317;52.186;5.688;2023-05-29T16:10:13;18.70;99.90
16417;DHT22;8317;52.186;5.688;2023-05-29T16:12:42;18.70;99.90